sensor_id;sensor_type;location;lat;lon;timestamp;P1;durP1;ratioP1;P2;durP2;ratioP2
79202;SDS011;68630;42.748;23.278;2024-02-04T00:00:37;7.62;;;4.00;;
79202;SDS011;68630;42.748;23.278;2024-02-04T00:03:24;9.03;;;4.25;;
79202;SDS011;68630;42.748;23.278;2024-02-04T00:05:54;8.35;;;4.37;;
79202;SDS011;68630;42.748;23.278;2024-02-04T00:08:27;12.58;;;4.65;;
79202;SDS011;68630;42.748;23.278;2024-02-04T00:11:05;11.55;;;4.33;;
79202;SDS011;68630;42.748;23.278;2024-02-04T00:13:57;12.45;;;5.17;;
79202;SDS011;68630;42.748;23.278;2024-02-04T00:16:56;8.20;;;4.15;;
79202;SDS011;68630;42.748;23.278;2024-02-04T00:19:30;12.73;;;4.60;;
79202;SDS011;68630;42.748;23.278;2024-02-04T00:22:03;8.58;;;4.28;;
79202;SDS011;68630;42.748;23.278;2024-02-04T00:24:33;16.00;;;5.00;;
79202;SDS011;68630;42.748;23.278;2024-02-04T00:27:04;10.10;;;4.67;;
79202;SDS011;68630;42.748;23.278;2024-02-04T00:29:51;10.10;;;4.62;;
79202;SDS011;68630;42.748;23.278;2024-02-04T00:32:27;11.22;;;5.00;;
79202;SDS011;68630;42.748;23.278;2024-02-04T00:35:04;10.93;;;4.50;;
79202;SDS011;68630;42.748;23.278;2024-02-04T00:37:42;10.72;;;4.85;;
79202;SDS011;68630;42.748;23.278;2024-02-04T00:40:13;10.58;;;4.75;;
79202;SDS011;68630;42.748;23.278;2024-02-04T00:42:42;12.03;;;4.83;;
79202;SDS011;68630;42.748;23.278;2024-02-04T00:45:13;9.40;;;4.15;;
79202;SDS011;68630;42.748;23.278;2024-02-04T00:47:45;9.53;;;5.00;;
79202;SDS011;68630;42.748;23.278;2024-02-04T00:50:18;10.88;;;5.35;;
79202;SDS011;68630;42.748;23.278;2024-02-04T00:53:00;13.00;;;4.50;;
79202;SDS011;68630;42.748;23.278;2024-02-04T00:55:35;11.10;;;4.83;;
79202;SDS011;68630;42.748;23.278;2024-02-04T00:58:17;10.03;;;4.90;;
79202;SDS011;68630;42.748;23.278;2024-02-04T01:00:57;12.15;;;5.03;;
79202;SDS011;68630;42.748;23.278;2024-02-04T01:03:32;12.23;;;5.17;;
79202;SDS011;68630;42.748;23.278;2024-02-04T01:06:02;11.03;;;5.03;;
79202;SDS011;68630;42.748;23.278;2024-02-04T01:08:39;12.03;;;4.92;;
79202;SDS011;68630;42.748;23.278;2024-02-04T01:11:10;11.05;;;4.90;;
79202;SDS011;68630;42.748;23.278;2024-02-04T01:13:42;12.65;;;4.87;;
79202;SDS011;68630;42.748;23.278;2024-02-04T01:16:15;13.70;;;6.10;;
79202;SDS011;68630;42.748;23.278;2024-02-04T01:18:48;12.35;;;5.35;;
79202;SDS011;68630;42.748;23.278;2024-02-04T01:21:19;15.30;;;5.75;;
79202;SDS011;68630;42.748;23.278;2024-02-04T01:23:53;12.63;;;5.53;;
79202;SDS011;68630;42.748;23.278;2024-02-04T01:26:25;12.73;;;5.53;;
79202;SDS011;68630;42.748;23.278;2024-02-04T01:29:01;10.28;;;5.12;;
79202;SDS011;68630;42.748;23.278;2024-02-04T01:31:33;13.62;;;5.25;;
79202;SDS011;68630;42.748;23.278;2024-02-04T01:34:02;8.48;;;4.62;;
79202;SDS011;68630;42.748;23.278;2024-02-04T01:36:35;14.65;;;5.35;;
79202;SDS011;68630;42.748;23.278;2024-02-04T01:39:06;13.30;;;5.00;;
79202;SDS011;68630;42.748;23.278;2024-02-04T01:41:38;15.00;;;5.20;;
79202;SDS011;68630;42.748;23.278;2024-02-04T01:44:10;13.30;;;5.67;;
79202;SDS011;68630;42.748;23.278;2024-02-04T01:46:40;13.18;;;5.75;;
79202;SDS011;68630;42.748;23.278;2024-02-04T01:49:16;16.85;;;6.10;;
79202;SDS011;68630;42.748;23.278;2024-02-04T01:51:54;13.70;;;5.97;;
79202;SDS011;68630;42.748;23.278;2024-02-04T01:54:35;10.90;;;5.60;;
79202;SDS011;68630;42.748;23.278;2024-02-04T01:57:06;11.38;;;6.10;;
79202;SDS011;68630;42.748;23.278;2024-02-04T01:59:40;11.18;;;4.70;;
79202;SDS011;68630;42.748;23.278;2024-02-04T02:02:14;9.55;;;4.80;;
79202;SDS011;68630;42.748;23.278;2024-02-04T02:04:45;10.03;;;4.67;;
79202;SDS011;68630;42.748;23.278;2024-02-04T02:07:27;13.48;;;4.90;;
79202;SDS011;68630;42.748;23.278;2024-02-04T02:10:02;8.78;;;4.15;;
79202;SDS011;68630;42.748;23.278;2024-02-04T02:12:40;9.83;;;4.62;;
79202;SDS011;68630;42.748;23.278;2024-02-04T02:15:14;10.65;;;4.40;;
79202;SDS011;68630;42.748;23.278;2024-02-04T02:18:03;7.55;;;4.20;;
79202;SDS011;68630;42.748;23.278;2024-02-04T02:23:56;9.65;;;4.47;;
79202;SDS011;68630;42.748;23.278;2024-02-04T02:26:38;9.10;;;4.12;;
79202;SDS011;68630;42.748;23.278;2024-02-04T02:29:16;11.45;;;4.50;;
79202;SDS011;68630;42.748;23.278;2024-02-04T02:31:51;9.73;;;4.05;;
79202;SDS011;68630;42.748;23.278;2024-02-04T02:34:31;10.20;;;4.40;;
79202;SDS011;68630;42.748;23.278;2024-02-04T02:40:08;11.33;;;4.10;;
79202;SDS011;68630;42.748;23.278;2024-02-04T02:45:41;7.72;;;4.08;;
79202;SDS011;68630;42.748;23.278;2024-02-04T02:48:14;8.25;;;4.03;;
79202;SDS011;68630;42.748;23.278;2024-02-04T02:50:55;7.10;;;3.55;;
79202;SDS011;68630;42.748;23.278;2024-02-04T02:53:25;10.68;;;3.95;;
79202;SDS011;68630;42.748;23.278;2024-02-04T02:56:00;8.40;;;4.20;;
79202;SDS011;68630;42.748;23.278;2024-02-04T02:58:32;10.80;;;4.95;;
79202;SDS011;68630;42.748;23.278;2024-02-04T03:01:06;7.60;;;4.20;;
79202;SDS011;68630;42.748;23.278;2024-02-04T03:03:37;10.95;;;4.42;;
79202;SDS011;68630;42.748;23.278;2024-02-04T03:08:48;9.93;;;4.03;;
79202;SDS011;68630;42.748;23.278;2024-02-04T03:11:20;10.10;;;4.15;;
79202;SDS011;68630;42.748;23.278;2024-02-04T03:13:54;9.85;;;4.10;;
79202;SDS011;68630;42.748;23.278;2024-02-04T03:16:28;10.80;;;4.78;;
79202;SDS011;68630;42.748;23.278;2024-02-04T03:18:58;10.98;;;4.87;;
79202;SDS011;68630;42.748;23.278;2024-02-04T03:21:46;11.85;;;5.17;;
79202;SDS011;68630;42.748;23.278;2024-02-04T05:41:50;13.35;;;5.37;;
79202;SDS011;68630;42.748;23.278;2024-02-04T05:44:19;9.93;;;5.17;;
79202;SDS011;68630;42.748;23.278;2024-02-04T05:47:00;14.98;;;5.20;;
79202;SDS011;68630;42.748;23.278;2024-02-04T05:49:29;11.53;;;5.67;;
79202;SDS011;68630;42.748;23.278;2024-02-04T05:52:02;9.15;;;4.62;;
79202;SDS011;68630;42.748;23.278;2024-02-04T05:54:39;10.90;;;5.72;;
79202;SDS011;68630;42.748;23.278;2024-02-04T05:57:09;9.70;;;5.15;;
79202;SDS011;68630;42.748;23.278;2024-02-04T05:59:43;13.03;;;5.92;;
79202;SDS011;68630;42.748;23.278;2024-02-04T06:02:18;13.72;;;5.95;;
79202;SDS011;68630;42.748;23.278;2024-02-04T06:04:53;13.80;;;6.50;;
79202;SDS011;68630;42.748;23.278;2024-02-04T06:07:25;15.53;;;5.97;;
79202;SDS011;68630;42.748;23.278;2024-02-04T06:09:56;17.15;;;6.33;;
79202;SDS011;68630;42.748;23.278;2024-02-04T06:12:30;16.50;;;6.33;;
79202;SDS011;68630;42.748;23.278;2024-02-04T06:15:01;13.22;;;6.97;;
79202;SDS011;68630;42.748;23.278;2024-02-04T06:17:40;12.43;;;6.47;;
79202;SDS011;68630;42.748;23.278;2024-02-04T06:20:13;12.78;;;6.62;;
79202;SDS011;68630;42.748;23.278;2024-02-04T06:22:45;12.90;;;6.67;;
79202;SDS011;68630;42.748;23.278;2024-02-04T06:25:13;17.32;;;6.65;;
79202;SDS011;68630;42.748;23.278;2024-02-04T06:27:44;15.70;;;5.58;;
79202;SDS011;68630;42.748;23.278;2024-02-04T06:30:16;16.02;;;6.17;;
79202;SDS011;68630;42.748;23.278;2024-02-04T06:32:53;9.68;;;5.70;;
79202;SDS011;68630;42.748;23.278;2024-02-04T06:35:30;13.53;;;6.20;;
79202;SDS011;68630;42.748;23.278;2024-02-04T06:38:02;16.52;;;6.28;;
79202;SDS011;68630;42.748;23.278;2024-02-04T06:40:34;12.93;;;5.92;;
79202;SDS011;68630;42.748;23.278;2024-02-04T06:43:07;12.10;;;5.72;;
79202;SDS011;68630;42.748;23.278;2024-02-04T06:45:44;10.88;;;5.50;;
79202;SDS011;68630;42.748;23.278;2024-02-04T06:48:22;12.07;;;5.90;;
79202;SDS011;68630;42.748;23.278;2024-02-04T06:50:57;11.45;;;6.47;;
79202;SDS011;68630;42.748;23.278;2024-02-04T06:53:32;14.40;;;5.35;;
79202;SDS011;68630;42.748;23.278;2024-02-04T06:56:05;12.45;;;4.83;;
79202;SDS011;68630;42.748;23.278;2024-02-04T06:58:43;12.93;;;5.00;;
79202;SDS011;68630;42.748;23.278;2024-02-04T07:01:14;12.50;;;5.45;;
79202;SDS011;68630;42.748;23.278;2024-02-04T07:03:49;12.40;;;5.67;;
79202;SDS011;68630;42.748;23.278;2024-02-04T07:06:25;12.78;;;5.83;;
79202;SDS011;68630;42.748;23.278;2024-02-04T07:11:52;9.03;;;4.87;;
79202;SDS011;68630;42.748;23.278;2024-02-04T07:14:30;9.90;;;5.12;;
79202;SDS011;68630;42.748;23.278;2024-02-04T07:22:22;8.90;;;4.87;;
79202;SDS011;68630;42.748;23.278;2024-02-04T07:25:11;10.45;;;4.85;;
79202;SDS011;68630;42.748;23.278;2024-02-04T07:27:47;11.30;;;4.83;;
79202;SDS011;68630;42.748;23.278;2024-02-04T07:30:42;8.68;;;4.08;;
79202;SDS011;68630;42.748;23.278;2024-02-04T07:33:19;9.33;;;4.22;;
79202;SDS011;68630;42.748;23.278;2024-02-04T07:36:12;9.60;;;4.35;;
79202;SDS011;68630;42.748;23.278;2024-02-04T07:41:58;10.60;;;4.90;;
79202;SDS011;68630;42.748;23.278;2024-02-04T07:44:33;8.98;;;4.70;;
79202;SDS011;68630;42.748;23.278;2024-02-04T07:47:10;7.60;;;4.12;;
79202;SDS011;68630;42.748;23.278;2024-02-04T07:49:39;8.80;;;4.62;;
79202;SDS011;68630;42.748;23.278;2024-02-04T07:52:09;9.90;;;4.50;;
79202;SDS011;68630;42.748;23.278;2024-02-04T07:54:46;8.70;;;4.10;;
79202;SDS011;68630;42.748;23.278;2024-02-04T07:57:19;7.60;;;4.15;;
79202;SDS011;68630;42.748;23.278;2024-02-04T07:59:58;8.08;;;4.03;;
79202;SDS011;68630;42.748;23.278;2024-02-04T08:02:34;8.05;;;3.98;;
79202;SDS011;68630;42.748;23.278;2024-02-04T08:05:08;10.08;;;4.08;;
79202;SDS011;68630;42.748;23.278;2024-02-04T08:07:40;10.63;;;3.75;;
79202;SDS011;68630;42.748;23.278;2024-02-04T08:10:14;7.05;;;3.58;;
79202;SDS011;68630;42.748;23.278;2024-02-04T08:12:51;6.47;;;3.77;;
79202;SDS011;68630;42.748;23.278;2024-02-04T08:15:22;6.55;;;2.70;;
79202;SDS011;68630;42.748;23.278;2024-02-04T08:20:43;16.85;;;3.58;;
79202;SDS011;68630;42.748;23.278;2024-02-04T08:23:15;6.60;;;2.27;;
79202;SDS011;68630;42.748;23.278;2024-02-04T08:25:46;3.98;;;2.20;;
79202;SDS011;68630;42.748;23.278;2024-02-04T08:31:22;7.65;;;2.20;;
79202;SDS011;68630;42.748;23.278;2024-02-04T08:34:00;4.58;;;1.77;;
79202;SDS011;68630;42.748;23.278;2024-02-04T08:36:35;3.35;;;2.00;;
79202;SDS011;68630;42.748;23.278;2024-02-04T08:39:08;2.90;;;1.70;;
79202;SDS011;68630;42.748;23.278;2024-02-04T08:41:41;6.45;;;2.42;;
79202;SDS011;68630;42.748;23.278;2024-02-04T08:44:19;6.72;;;2.60;;
79202;SDS011;68630;42.748;23.278;2024-02-04T08:46:52;6.97;;;2.75;;
79202;SDS011;68630;42.748;23.278;2024-02-04T08:49:22;4.12;;;2.15;;
79202;SDS011;68630;42.748;23.278;2024-02-04T08:52:02;4.85;;;1.82;;
79202;SDS011;68630;42.748;23.278;2024-02-04T08:54:31;3.15;;;2.10;;
79202;SDS011;68630;42.748;23.278;2024-02-04T08:57:03;4.62;;;2.10;;
79202;SDS011;68630;42.748;23.278;2024-02-04T08:59:31;4.00;;;2.35;;
79202;SDS011;68630;42.748;23.278;2024-02-04T09:02:00;4.25;;;2.12;;
79202;SDS011;68630;42.748;23.278;2024-02-04T09:04:35;5.47;;;2.50;;
79202;SDS011;68630;42.748;23.278;2024-02-04T09:07:14;5.65;;;2.42;;
79202;SDS011;68630;42.748;23.278;2024-02-04T09:13:22;4.97;;;2.60;;
79202;SDS011;68630;42.748;23.278;2024-02-04T09:15:40;7.35;;;3.20;;
79202;SDS011;68630;42.748;23.278;2024-02-04T09:18:10;5.35;;;3.08;;
79202;SDS011;68630;42.748;23.278;2024-02-04T09:24:04;8.05;;;2.87;;
79202;SDS011;68630;42.748;23.278;2024-02-04T09:26:33;6.60;;;3.00;;
79202;SDS011;68630;42.748;23.278;2024-02-04T09:29:04;5.70;;;3.05;;
79202;SDS011;68630;42.748;23.278;2024-02-04T09:31:33;8.05;;;2.65;;
79202;SDS011;68630;42.748;23.278;2024-02-04T09:34:01;3.20;;;2.22;;
79202;SDS011;68630;42.748;23.278;2024-02-04T09:36:36;6.28;;;2.90;;
79202;SDS011;68630;42.748;23.278;2024-02-04T09:39:08;5.70;;;3.02;;
79202;SDS011;68630;42.748;23.278;2024-02-04T09:41:39;5.37;;;3.00;;
79202;SDS011;68630;42.748;23.278;2024-02-04T09:44:11;5.40;;;2.60;;
79202;SDS011;68630;42.748;23.278;2024-02-04T09:46:42;5.25;;;2.77;;
79202;SDS011;68630;42.748;23.278;2024-02-04T09:49:14;5.78;;;3.12;;
79202;SDS011;68630;42.748;23.278;2024-02-04T09:51:44;8.75;;;3.20;;
79202;SDS011;68630;42.748;23.278;2024-02-04T09:54:13;7.45;;;1.98;;
79202;SDS011;68630;42.748;23.278;2024-02-04T09:59:23;4.00;;;2.02;;
79202;SDS011;68630;42.748;23.278;2024-02-04T10:01:57;4.35;;;1.90;;
79202;SDS011;68630;42.748;23.278;2024-02-04T10:04:42;5.03;;;2.00;;
79202;SDS011;68630;42.748;23.278;2024-02-04T10:07:27;5.17;;;2.25;;
79202;SDS011;68630;42.748;23.278;2024-02-04T10:09:56;4.30;;;1.90;;
79202;SDS011;68630;42.748;23.278;2024-02-04T10:15:50;3.52;;;2.00;;
79202;SDS011;68630;42.748;23.278;2024-02-04T10:18:32;7.53;;;2.22;;
79202;SDS011;68630;42.748;23.278;2024-02-04T10:24:06;6.00;;;2.35;;
79202;SDS011;68630;42.748;23.278;2024-02-04T10:26:38;5.67;;;1.92;;
79202;SDS011;68630;42.748;23.278;2024-02-04T10:29:10;4.30;;;2.08;;
79202;SDS011;68630;42.748;23.278;2024-02-04T10:31:46;7.28;;;2.20;;
79202;SDS011;68630;42.748;23.278;2024-02-04T10:34:22;4.83;;;2.10;;
79202;SDS011;68630;42.748;23.278;2024-02-04T10:39:51;6.05;;;1.90;;
79202;SDS011;68630;42.748;23.278;2024-02-04T10:42:24;4.20;;;1.80;;
79202;SDS011;68630;42.748;23.278;2024-02-04T10:45:07;3.95;;;2.05;;
79202;SDS011;68630;42.748;23.278;2024-02-04T10:47:40;3.58;;;2.15;;
79202;SDS011;68630;42.748;23.278;2024-02-04T10:50:10;3.33;;;1.90;;
79202;SDS011;68630;42.748;23.278;2024-02-04T10:52:42;7.33;;;2.35;;
79202;SDS011;68630;42.748;23.278;2024-02-04T10:55:15;5.50;;;1.77;;
79202;SDS011;68630;42.748;23.278;2024-02-04T10:57:49;2.75;;;1.55;;
79202;SDS011;68630;42.748;23.278;2024-02-04T11:00:20;5.33;;;1.80;;
79202;SDS011;68630;42.748;23.278;2024-02-04T11:02:56;2.35;;;1.50;;
79202;SDS011;68630;42.748;23.278;2024-02-04T11:05:31;2.77;;;1.95;;
79202;SDS011;68630;42.748;23.278;2024-02-04T11:08:04;3.70;;;1.90;;
79202;SDS011;68630;42.748;23.278;2024-02-04T11:10:40;4.60;;;2.40;;
79202;SDS011;68630;42.748;23.278;2024-02-04T11:16:08;6.08;;;2.20;;
79202;SDS011;68630;42.748;23.278;2024-02-04T11:22:11;5.20;;;2.30;;
79202;SDS011;68630;42.748;23.278;2024-02-04T11:27:39;3.83;;;2.00;;
79202;SDS011;68630;42.748;23.278;2024-02-04T11:30:15;3.77;;;2.10;;
79202;SDS011;68630;42.748;23.278;2024-02-04T11:32:52;2.65;;;1.90;;
79202;SDS011;68630;42.748;23.278;2024-02-04T11:35:22;3.33;;;1.82;;
79202;SDS011;68630;42.748;23.278;2024-02-04T11:37:53;2.65;;;1.62;;
79202;SDS011;68630;42.748;23.278;2024-02-04T11:40:36;3.85;;;1.80;;
79202;SDS011;68630;42.748;23.278;2024-02-04T11:43:22;3.10;;;1.35;;
79202;SDS011;68630;42.748;23.278;2024-02-04T11:45:51;4.03;;;1.60;;
79202;SDS011;68630;42.748;23.278;2024-02-04T11:48:28;2.35;;;1.40;;
79202;SDS011;68630;42.748;23.278;2024-02-04T11:51:01;4.45;;;1.85;;
79202;SDS011;68630;42.748;23.278;2024-02-04T11:53:38;7.03;;;1.50;;
79202;SDS011;68630;42.748;23.278;2024-02-04T11:56:07;2.75;;;1.65;;
79202;SDS011;68630;42.748;23.278;2024-02-04T11:58:37;3.60;;;1.80;;
79202;SDS011;68630;42.748;23.278;2024-02-04T12:01:10;3.70;;;1.90;;
79202;SDS011;68630;42.748;23.278;2024-02-04T12:03:42;4.22;;;1.72;;
79202;SDS011;68630;42.748;23.278;2024-02-04T12:06:12;8.45;;;2.08;;
79202;SDS011;68630;42.748;23.278;2024-02-04T12:08:45;6.08;;;1.90;;
79202;SDS011;68630;42.748;23.278;2024-02-04T12:11:20;3.90;;;1.62;;
79202;SDS011;68630;42.748;23.278;2024-02-04T12:13:53;4.03;;;1.70;;
79202;SDS011;68630;42.748;23.278;2024-02-04T12:16:28;4.80;;;1.80;;
79202;SDS011;68630;42.748;23.278;2024-02-04T12:19:00;16.77;;;2.00;;
79202;SDS011;68630;42.748;23.278;2024-02-04T12:21:35;7.67;;;1.90;;
79202;SDS011;68630;42.748;23.278;2024-02-04T12:24:12;6.60;;;2.35;;
79202;SDS011;68630;42.748;23.278;2024-02-04T12:26:53;5.22;;;2.00;;
79202;SDS011;68630;42.748;23.278;2024-02-04T12:29:24;6.10;;;3.42;;
79202;SDS011;68630;42.748;23.278;2024-02-04T12:31:58;2.75;;;1.80;;
79202;SDS011;68630;42.748;23.278;2024-02-04T12:34:27;4.58;;;1.85;;
79202;SDS011;68630;42.748;23.278;2024-02-04T12:36:59;2.70;;;1.70;;
79202;SDS011;68630;42.748;23.278;2024-02-04T12:39:31;3.12;;;1.98;;
79202;SDS011;68630;42.748;23.278;2024-02-04T12:41:58;2.98;;;1.80;;
79202;SDS011;68630;42.748;23.278;2024-02-04T12:44:26;6.58;;;2.22;;
79202;SDS011;68630;42.748;23.278;2024-02-04T12:46:54;3.92;;;2.10;;
79202;SDS011;68630;42.748;23.278;2024-02-04T12:49:24;5.15;;;2.22;;
79202;SDS011;68630;42.748;23.278;2024-02-04T12:52:03;6.35;;;2.47;;
79202;SDS011;68630;42.748;23.278;2024-02-04T12:54:26;7.47;;;2.35;;
79202;SDS011;68630;42.748;23.278;2024-02-04T12:56:55;5.60;;;2.05;;
79202;SDS011;68630;42.748;23.278;2024-02-04T12:59:32;3.90;;;1.70;;
79202;SDS011;68630;42.748;23.278;2024-02-04T13:01:57;3.60;;;2.15;;
79202;SDS011;68630;42.748;23.278;2024-02-04T13:04:33;5.90;;;2.90;;
79202;SDS011;68630;42.748;23.278;2024-02-04T13:07:13;6.90;;;2.67;;
79202;SDS011;68630;42.748;23.278;2024-02-04T13:10:08;7.97;;;2.30;;
79202;SDS011;68630;42.748;23.278;2024-02-04T13:13:02;4.58;;;2.58;;
79202;SDS011;68630;42.748;23.278;2024-02-04T13:16:04;6.30;;;2.80;;
79202;SDS011;68630;42.748;23.278;2024-02-04T13:19:00;5.83;;;2.30;;
79202;SDS011;68630;42.748;23.278;2024-02-04T13:21:35;6.97;;;3.22;;
79202;SDS011;68630;42.748;23.278;2024-02-04T13:24:30;9.03;;;2.12;;
79202;SDS011;68630;42.748;23.278;2024-02-04T13:27:02;4.83;;;2.08;;
79202;SDS011;68630;42.748;23.278;2024-02-04T13:33:13;4.22;;;2.20;;
79202;SDS011;68630;42.748;23.278;2024-02-04T13:38:46;4.87;;;2.72;;
79202;SDS011;68630;42.748;23.278;2024-02-04T13:41:58;7.35;;;2.92;;
79202;SDS011;68630;42.748;23.278;2024-02-04T13:44:34;8.83;;;2.42;;
79202;SDS011;68630;42.748;23.278;2024-02-04T13:47:23;4.72;;;2.45;;
79202;SDS011;68630;42.748;23.278;2024-02-04T13:49:58;4.40;;;1.80;;
79202;SDS011;68630;42.748;23.278;2024-02-04T13:55:05;3.80;;;2.33;;
79202;SDS011;68630;42.748;23.278;2024-02-04T13:57:57;4.25;;;1.92;;
79202;SDS011;68630;42.748;23.278;2024-02-04T14:00:28;3.67;;;1.80;;
79202;SDS011;68630;42.748;23.278;2024-02-04T14:06:04;9.90;;;2.30;;
79202;SDS011;68630;42.748;23.278;2024-02-04T14:08:40;4.62;;;2.30;;
79202;SDS011;68630;42.748;23.278;2024-02-04T14:11:14;3.58;;;1.95;;
79202;SDS011;68630;42.748;23.278;2024-02-04T14:13:50;4.85;;;2.08;;
79202;SDS011;68630;42.748;23.278;2024-02-04T14:16:21;5.28;;;2.45;;
79202;SDS011;68630;42.748;23.278;2024-02-04T14:18:53;8.35;;;2.58;;
79202;SDS011;68630;42.748;23.278;2024-02-04T14:21:27;3.87;;;2.02;;
79202;SDS011;68630;42.748;23.278;2024-02-04T14:24:12;7.67;;;2.55;;
79202;SDS011;68630;42.748;23.278;2024-02-04T14:26:42;3.37;;;1.90;;
79202;SDS011;68630;42.748;23.278;2024-02-04T14:29:21;4.20;;;2.50;;
79202;SDS011;68630;42.748;23.278;2024-02-04T14:31:56;4.60;;;2.27;;
79202;SDS011;68630;42.748;23.278;2024-02-04T14:37:23;4.72;;;2.00;;
79202;SDS011;68630;42.748;23.278;2024-02-04T14:39:50;4.25;;;2.05;;
79202;SDS011;68630;42.748;23.278;2024-02-04T14:42:24;3.55;;;2.12;;
79202;SDS011;68630;42.748;23.278;2024-02-04T14:44:54;3.30;;;1.90;;
79202;SDS011;68630;42.748;23.278;2024-02-04T14:47:27;4.33;;;1.90;;
79202;SDS011;68630;42.748;23.278;2024-02-04T14:49:57;3.77;;;2.10;;
79202;SDS011;68630;42.748;23.278;2024-02-04T14:52:30;3.55;;;1.95;;
79202;SDS011;68630;42.748;23.278;2024-02-04T14:55:02;3.47;;;2.05;;
79202;SDS011;68630;42.748;23.278;2024-02-04T14:57:33;13.78;;;2.30;;
79202;SDS011;68630;42.748;23.278;2024-02-04T15:00:06;5.75;;;2.15;;
79202;SDS011;68630;42.748;23.278;2024-02-04T15:02:40;5.15;;;2.37;;
79202;SDS011;68630;42.748;23.278;2024-02-04T15:05:25;3.37;;;2.10;;
79202;SDS011;68630;42.748;23.278;2024-02-04T15:08:10;12.88;;;2.40;;
79202;SDS011;68630;42.748;23.278;2024-02-04T15:10:48;4.22;;;2.15;;
79202;SDS011;68630;42.748;23.278;2024-02-04T15:13:29;4.30;;;2.00;;
79202;SDS011;68630;42.748;23.278;2024-02-04T15:16:04;9.80;;;2.60;;
79202;SDS011;68630;42.748;23.278;2024-02-04T15:18:47;4.37;;;2.40;;
79202;SDS011;68630;42.748;23.278;2024-02-04T15:21:23;4.05;;;2.15;;
79202;SDS011;68630;42.748;23.278;2024-02-04T15:24:00;5.33;;;2.70;;
79202;SDS011;68630;42.748;23.278;2024-02-04T15:26:39;5.08;;;2.87;;
79202;SDS011;68630;42.748;23.278;2024-02-04T15:29:12;7.80;;;3.37;;
79202;SDS011;68630;42.748;23.278;2024-02-04T15:31:45;6.00;;;2.40;;
79202;SDS011;68630;42.748;23.278;2024-02-04T15:34:18;5.95;;;3.05;;
79202;SDS011;68630;42.748;23.278;2024-02-04T15:36:55;5.58;;;3.00;;
79202;SDS011;68630;42.748;23.278;2024-02-04T15:39:33;5.67;;;2.87;;
79202;SDS011;68630;42.748;23.278;2024-02-04T15:42:12;6.85;;;3.33;;
79202;SDS011;68630;42.748;23.278;2024-02-04T15:44:43;8.58;;;3.37;;
79202;SDS011;68630;42.748;23.278;2024-02-04T15:47:21;6.25;;;3.25;;
79202;SDS011;68630;42.748;23.278;2024-02-04T15:49:53;8.93;;;3.87;;
79202;SDS011;68630;42.748;23.278;2024-02-04T15:52:28;7.00;;;3.50;;
79202;SDS011;68630;42.748;23.278;2024-02-04T15:55:05;6.97;;;2.92;;
79202;SDS011;68630;42.748;23.278;2024-02-04T15:57:38;8.55;;;4.47;;
79202;SDS011;68630;42.748;23.278;2024-02-04T16:00:19;10.98;;;4.72;;
79202;SDS011;68630;42.748;23.278;2024-02-04T16:02:52;16.62;;;5.65;;
79202;SDS011;68630;42.748;23.278;2024-02-04T16:05:23;18.65;;;7.42;;
79202;SDS011;68630;42.748;23.278;2024-02-04T16:08:00;17.30;;;7.28;;
79202;SDS011;68630;42.748;23.278;2024-02-04T16:10:37;22.60;;;7.72;;
79202;SDS011;68630;42.748;23.278;2024-02-04T16:13:15;18.62;;;7.97;;
79202;SDS011;68630;42.748;23.278;2024-02-04T16:15:48;15.95;;;7.50;;
79202;SDS011;68630;42.748;23.278;2024-02-04T16:18:24;13.22;;;7.17;;
79202;SDS011;68630;42.748;23.278;2024-02-04T16:23:35;12.07;;;5.97;;
79202;SDS011;68630;42.748;23.278;2024-02-04T16:26:08;15.13;;;7.28;;
79202;SDS011;68630;42.748;23.278;2024-02-04T16:28:51;15.43;;;6.28;;
79202;SDS011;68630;42.748;23.278;2024-02-04T16:36:34;22.55;;;10.00;;
79202;SDS011;68630;42.748;23.278;2024-02-04T16:39:04;20.05;;;8.78;;
79202;SDS011;68630;42.748;23.278;2024-02-04T16:41:43;21.23;;;8.53;;
79202;SDS011;68630;42.748;23.278;2024-02-04T16:44:18;23.92;;;8.68;;
79202;SDS011;68630;42.748;23.278;2024-02-04T16:46:49;14.63;;;6.75;;
79202;SDS011;68630;42.748;23.278;2024-02-04T16:49:20;13.93;;;5.78;;
79202;SDS011;68630;42.748;23.278;2024-02-04T16:51:55;17.67;;;7.80;;
79202;SDS011;68630;42.748;23.278;2024-02-04T16:54:35;26.45;;;9.18;;
79202;SDS011;68630;42.748;23.278;2024-02-04T16:57:11;24.18;;;8.10;;
79202;SDS011;68630;42.748;23.278;2024-02-04T16:59:47;19.12;;;7.42;;
79202;SDS011;68630;42.748;23.278;2024-02-04T17:02:17;15.03;;;5.92;;
79202;SDS011;68630;42.748;23.278;2024-02-04T17:04:58;14.63;;;5.12;;
79202;SDS011;68630;42.748;23.278;2024-02-04T17:07:29;11.30;;;4.95;;
79202;SDS011;68630;42.748;23.278;2024-02-04T17:22:43;15.03;;;6.62;;
79202;SDS011;68630;42.748;23.278;2024-02-04T17:28:02;12.63;;;5.78;;
79202;SDS011;68630;42.748;23.278;2024-02-04T17:30:36;14.53;;;5.85;;
79202;SDS011;68630;42.748;23.278;2024-02-04T17:33:09;12.80;;;6.83;;
79202;SDS011;68630;42.748;23.278;2024-02-04T17:35:38;11.00;;;6.05;;
79202;SDS011;68630;42.748;23.278;2024-02-04T17:54:12;13.18;;;6.37;;
79202;SDS011;68630;42.748;23.278;2024-02-04T17:56:42;13.88;;;6.60;;
79202;SDS011;68630;42.748;23.278;2024-02-04T17:59:17;13.95;;;6.10;;
79202;SDS011;68630;42.748;23.278;2024-02-04T18:04:50;13.00;;;5.67;;
79202;SDS011;68630;42.748;23.278;2024-02-04T18:08:02;11.38;;;5.28;;
79202;SDS011;68630;42.748;23.278;2024-02-04T18:11:02;12.30;;;6.22;;
79202;SDS011;68630;42.748;23.278;2024-02-04T18:13:35;12.82;;;6.37;;
79202;SDS011;68630;42.748;23.278;2024-02-04T18:16:04;17.98;;;7.65;;
79202;SDS011;68630;42.748;23.278;2024-02-04T18:18:34;17.85;;;6.62;;
79202;SDS011;68630;42.748;23.278;2024-02-04T18:21:06;12.63;;;6.08;;
79202;SDS011;68630;42.748;23.278;2024-02-04T18:23:52;13.38;;;6.60;;
79202;SDS011;68630;42.748;23.278;2024-02-04T18:34:18;11.75;;;5.75;;
79202;SDS011;68630;42.748;23.278;2024-02-04T18:42:05;26.37;;;11.80;;
79202;SDS011;68630;42.748;23.278;2024-02-04T18:51:40;13.25;;;6.87;;
79202;SDS011;68630;42.748;23.278;2024-02-04T19:38:40;17.20;;;7.47;;
79202;SDS011;68630;42.748;23.278;2024-02-04T19:41:17;12.20;;;6.42;;
79202;SDS011;68630;42.748;23.278;2024-02-04T19:43:50;14.58;;;6.28;;
79202;SDS011;68630;42.748;23.278;2024-02-04T19:46:22;13.72;;;5.75;;
79202;SDS011;68630;42.748;23.278;2024-02-04T19:48:53;13.30;;;5.78;;
79202;SDS011;68630;42.748;23.278;2024-02-04T19:51:24;13.75;;;6.37;;
79202;SDS011;68630;42.748;23.278;2024-02-04T19:54:08;13.70;;;5.67;;
79202;SDS011;68630;42.748;23.278;2024-02-04T19:56:44;15.23;;;5.55;;
79202;SDS011;68630;42.748;23.278;2024-02-04T19:59:26;11.00;;;5.85;;
79202;SDS011;68630;42.748;23.278;2024-02-04T20:07:16;11.00;;;5.83;;
79202;SDS011;68630;42.748;23.278;2024-02-04T20:09:50;12.03;;;5.47;;
79202;SDS011;68630;42.748;23.278;2024-02-04T20:12:26;12.45;;;5.75;;
79202;SDS011;68630;42.748;23.278;2024-02-04T20:15:06;11.85;;;5.70;;
79202;SDS011;68630;42.748;23.278;2024-02-04T20:17:37;13.08;;;6.05;;
79202;SDS011;68630;42.748;23.278;2024-02-04T20:20:08;16.45;;;6.97;;
79202;SDS011;68630;42.748;23.278;2024-02-04T20:22:40;18.48;;;8.05;;
79202;SDS011;68630;42.748;23.278;2024-02-04T20:25:10;18.60;;;8.48;;
79202;SDS011;68630;42.748;23.278;2024-02-04T20:28:00;22.05;;;8.50;;
79202;SDS011;68630;42.748;23.278;2024-02-04T20:33:14;15.95;;;6.70;;
79202;SDS011;68630;42.748;23.278;2024-02-04T20:35:49;13.32;;;6.08;;
79202;SDS011;68630;42.748;23.278;2024-02-04T20:38:25;9.98;;;5.25;;